»·PEaware :: DCM720 KMRY-KSBP

DCM720 :: KMRY-KSBP

FLIGHT INFORMATION

Flight Status: Arrived
Operator: Unknown
More flights by this operator :: More flights under this callsign
Pilot: Shawn N. (11060)
Aircraft: BOEING 737-800
(B738)
More flights by this aircraft type
Origin: KMRY Monterey Peninsula
United States
Destination: KSBP San Luis Co Regl
United States
More flights between these airports :: More routes between these airports
Route: MRY4 BSR V27 MQO
File this flight plan on PilotEdge
Remarks:
Altitude:
(Current/Filed)
11,000ft
Speed:
(Current/Filed)
280kts
Departed: 08-Aug-18 03:02 PM
Arrived: 08-Aug-18 03:31 PM
Distance/Time
Traveled:
100nm/0:29
Distance/Time
To Go:
Arrived

Flight Plot

Page will automatically refresh every two minutes.

Flight plan parsing failed; only flown route is shown


Map Options




Map Legend


Flown Route
Filed Route
Departure Airport
Arrival Airport
Navaid (VOR, NDB)
Fix

Horizontal Profiles

Position Reports

Time Latitude Longitude Heading Altitude Ground
Speed
08-Aug-18 14:39 36.588268 -121.857284 344 167ft 0kts
08-Aug-18 14:40 36.588268 -121.857284 344 167ft 0kts
08-Aug-18 14:41 36.588268 -121.857284 344 167ft 0kts
08-Aug-18 14:42 36.588268 -121.857284 344 167ft 0kts
08-Aug-18 14:43 36.588268 -121.857284 344 167ft 0kts
08-Aug-18 14:44 36.588268 -121.857284 344 167ft 0kts
08-Aug-18 14:45 36.588268 -121.857284 344 167ft 0kts
08-Aug-18 14:46 36.588268 -121.857284 344 167ft 0kts
08-Aug-18 14:47 36.588268 -121.857284 344 167ft 0kts
08-Aug-18 14:48 36.588268 -121.857284 344 167ft 0kts
08-Aug-18 14:49 36.588268 -121.857284 344 167ft 0kts
08-Aug-18 14:50 36.588268 -121.857284 344 167ft 0kts
08-Aug-18 14:51 36.588268 -121.857284 344 167ft 0kts
08-Aug-18 14:52 36.588268 -121.857284 344 167ft 0kts
08-Aug-18 14:53 36.588268 -121.857284 344 167ft 0kts
08-Aug-18 14:54 36.588268 -121.857284 344 167ft 0kts
08-Aug-18 14:55 36.588268 -121.857284 344 167ft 0kts
08-Aug-18 14:56 36.588268 -121.857284 344 167ft 0kts
08-Aug-18 14:57 36.588268 -121.857284 345 167ft 0kts
08-Aug-18 14:58 36.589198 -121.856583 76 165ft 14kts
08-Aug-18 14:59 36.588615 -121.851637 112 175ft 16kts
08-Aug-18 15:00 36.587030 -121.846981 112 192ft 13kts
08-Aug-18 15:01 36.585002 -121.841375 113 232ft 21kts
08-Aug-18 15:02 36.582766 -121.834387 90 234ft 27kts
08-Aug-18 15:03 36.592375 -121.860156 292 970ft 169kts
08-Aug-18 15:04 36.633799 -121.901880 338 4718ft 205kts
08-Aug-18 15:05 36.689233 -121.866153 71 5688ft 284kts
08-Aug-18 15:06 36.681514 -121.768713 102 7060ft 284kts
08-Aug-18 15:07 36.635215 -121.699918 172 10131ft 292kts
08-Aug-18 15:08 36.545470 -121.687947 174 10973ft 356kts
08-Aug-18 15:09 36.446360 -121.675428 174 11000ft 359kts
08-Aug-18 15:10 36.347124 -121.662923 174 11000ft 359kts
08-Aug-18 15:11 36.249986 -121.650717 174 10999ft 359kts
08-Aug-18 15:12 36.152851 -121.629067 157 11009ft 359kts
08-Aug-18 15:13 36.061914 -121.581030 157 10999ft 359kts
08-Aug-18 15:14 35.974597 -121.535125 157 10999ft 359kts
08-Aug-18 15:15 35.885773 -121.488609 157 10995ft 335kts
08-Aug-18 15:16 35.802055 -121.445023 157 10288ft 312kts
08-Aug-18 15:17 35.726469 -121.405769 158 9282ft 288kts
08-Aug-18 15:18 35.653439 -121.367921 158 8909ft 286kts
08-Aug-18 15:19 35.598422 -121.306564 129 8908ft 290kts
08-Aug-18 15:20 35.549246 -121.227966 129 8908ft 290kts
08-Aug-18 15:21 35.500088 -121.149832 129 8908ft 290kts
08-Aug-18 15:22 35.450850 -121.071745 129 8908ft 290kts
08-Aug-18 15:23 35.409552 -121.006333 130 8291ft 288kts
08-Aug-18 15:24 35.354352 -120.919532 130 6918ft 277kts
08-Aug-18 15:25 35.310671 -120.850919 130 6280ft 233kts
08-Aug-18 15:26 35.278273 -120.800115 129 4803ft 229kts
08-Aug-18 15:27 35.235396 -120.730788 124 3142ft 216kts
08-Aug-18 15:28 35.204294 -120.674074 124 2157ft 195kts
08-Aug-18 15:29 35.185179 -120.627242 77 1456ft 171kts
08-Aug-18 15:30 35.215421 -120.605936 323 917ft 133kts
08-Aug-18 15:31 35.237101 -120.640389 305 193ft 95kts
08-Aug-18 15:32 35.239571 -120.642797 126 184ft 22kts
08-Aug-18 15:33 35.236094 -120.636300 44 208ft 5kts
08-Aug-18 15:34 35.236846 -120.636267 185 209ft 0kts

Navigation Log

Ident Type
Flight plan parsing failed, navigation log unavailable